createdAt,value
2023-05-04T00:00:58.218Z,10.90
2023-05-04T00:03:24.916Z,10.90
2023-05-04T00:05:51.556Z,10.90
2023-05-04T00:08:18.068Z,10.90
2023-05-04T00:10:44.530Z,10.90
2023-05-04T00:13:11.272Z,10.80
2023-05-04T00:15:37.853Z,10.80
2023-05-04T00:18:04.459Z,10.80
2023-05-04T00:20:31.099Z,10.70
2023-05-04T00:22:57.822Z,10.70
2023-05-04T00:25:24.432Z,10.70
2023-05-04T00:27:51.032Z,10.60
2023-05-04T00:30:17.552Z,10.50
2023-05-04T00:32:44.212Z,10.50
2023-05-04T00:35:10.901Z,10.40
2023-05-04T00:37:37.446Z,10.30
2023-05-04T00:40:04.386Z,10.20
2023-05-04T00:42:31.113Z,10.10
2023-05-04T00:44:57.576Z,10.10
2023-05-04T00:47:24.491Z,10.00
2023-05-04T00:49:52.094Z,10.00
2023-05-04T00:52:20.767Z,10.00
2023-05-04T00:54:47.883Z,10.00
2023-05-04T00:57:16.770Z,10.00
2023-05-04T00:59:43.290Z,9.90
2023-05-04T01:02:09.884Z,9.90
2023-05-04T01:04:36.520Z,10.00
2023-05-04T01:07:16.694Z,9.90
2023-05-04T01:09:49.760Z,9.90
2023-05-04T01:12:30.004Z,9.90
2023-05-04T01:14:58.504Z,9.90
2023-05-04T01:17:25.235Z,9.90
2023-05-04T01:19:53.951Z,9.80
2023-05-04T01:22:23.789Z,9.90
2023-05-04T01:24:50.654Z,9.90
2023-05-04T01:27:26.559Z,9.90
2023-05-04T01:30:05.729Z,9.90
2023-05-04T01:32:32.784Z,9.90
2023-05-04T01:34:59.432Z,9.90
2023-05-04T01:37:26.360Z,10.00
2023-05-04T01:39:52.861Z,10.00
2023-05-04T01:42:19.368Z,9.90
2023-05-04T01:44:45.973Z,9.90
2023-05-04T01:47:12.526Z,9.80
2023-05-04T01:49:39.038Z,9.80
2023-05-04T01:52:05.539Z,9.80
2023-05-04T01:54:32.061Z,9.70
2023-05-04T01:56:58.724Z,9.60
2023-05-04T01:59:25.419Z,9.60
2023-05-04T02:01:51.949Z,9.60
2023-05-04T02:04:18.532Z,9.60
2023-05-04T02:06:45.097Z,9.50
2023-05-04T02:09:11.995Z,9.50
2023-05-04T02:11:38.691Z,9.40
2023-05-04T02:14:05.431Z,9.30
2023-05-04T02:16:32.060Z,9.20
2023-05-04T02:18:58.650Z,9.20
2023-05-04T02:21:25.137Z,9.20
2023-05-04T02:23:51.884Z,9.20
2023-05-04T02:26:18.449Z,9.30
2023-05-04T02:28:44.961Z,9.30
2023-05-04T02:31:11.547Z,9.40
2023-05-04T02:33:38.150Z,9.50
2023-05-04T02:36:05.091Z,9.50
2023-05-04T02:38:32.959Z,9.40
2023-05-04T02:40:59.463Z,9.40
2023-05-04T02:43:26.251Z,9.40
2023-05-04T02:45:52.953Z,9.40
2023-05-04T02:48:20.167Z,9.30
2023-05-04T02:50:46.808Z,9.40
2023-05-04T02:53:13.299Z,9.40
2023-05-04T02:55:39.933Z,9.30
2023-05-04T02:58:07.214Z,9.20
2023-05-04T03:00:33.934Z,9.30
2023-05-04T03:03:00.712Z,9.30
2023-05-04T03:05:27.281Z,9.40
2023-05-04T03:07:53.786Z,9.40
2023-05-04T03:10:20.327Z,9.40
2023-05-04T03:12:46.955Z,9.40
2023-05-04T03:15:13.521Z,9.40
2023-05-04T03:17:40.207Z,9.40
2023-05-04T03:20:08.044Z,9.30
2023-05-04T03:22:34.788Z,9.20
2023-05-04T03:25:02.038Z,9.20
2023-05-04T03:27:29.436Z,9.20
2023-05-04T03:29:56.543Z,9.10
2023-05-04T03:32:24.763Z,9.10
2023-05-04T03:34:51.335Z,9.00
2023-05-04T03:37:19.666Z,8.90
2023-05-04T03:39:46.273Z,9.00
2023-05-04T03:42:13.127Z,9.00
2023-05-04T03:44:40.815Z,9.00
2023-05-04T03:47:07.842Z,9.00
2023-05-04T03:49:35.343Z,9.10
2023-05-04T03:52:01.896Z,9.20
2023-05-04T03:54:28.750Z,9.30
2023-05-04T03:56:55.348Z,9.40
2023-05-04T03:59:22.684Z,9.40
2023-05-04T04:01:49.995Z,9.50
2023-05-04T04:04:16.769Z,9.50
2023-05-04T04:06:43.635Z,9.40
2023-05-04T04:09:10.353Z,9.40
2023-05-04T04:11:36.947Z,9.50
2023-05-04T04:14:03.559Z,9.50
2023-05-04T04:16:30.142Z,9.40
2023-05-04T04:18:58.148Z,9.30
2023-05-04T04:21:24.877Z,9.20
2023-05-04T04:23:51.360Z,9.00
2023-05-04T04:26:17.871Z,9.00
2023-05-04T04:28:46.331Z,8.90
2023-05-04T04:31:12.898Z,8.80
2023-05-04T04:33:39.388Z,8.80
2023-05-04T04:36:06.068Z,8.80
2023-05-04T04:38:32.517Z,8.80
2023-05-04T04:40:59.014Z,8.70
2023-05-04T04:43:25.671Z,8.70
2023-05-04T04:45:53.832Z,8.80
2023-05-04T04:48:22.094Z,8.80
2023-05-04T04:50:48.746Z,8.80
2023-05-04T04:53:15.232Z,8.90
2023-05-04T04:55:42.019Z,8.90
2023-05-04T04:58:09.251Z,9.00
2023-05-04T05:00:36.595Z,8.90
2023-05-04T05:03:04.575Z,8.90
2023-05-04T05:05:34.460Z,9.00
2023-05-04T05:08:00.956Z,9.20
2023-05-04T05:10:27.441Z,9.30
2023-05-04T05:12:54.065Z,9.50
2023-05-04T05:15:20.676Z,9.60
2023-05-04T05:17:47.338Z,9.60
2023-05-04T05:20:15.219Z,9.70
2023-05-04T05:22:42.874Z,9.80
2023-05-04T05:25:09.630Z,9.80
2023-05-04T05:27:36.718Z,9.80
2023-05-04T05:30:05.833Z,10.00
2023-05-04T05:32:32.876Z,10.00
2023-05-04T05:34:59.381Z,10.10
2023-05-04T05:37:26.081Z,10.30
2023-05-04T05:39:52.603Z,10.40
2023-05-04T05:42:19.483Z,10.50
2023-05-04T05:44:45.962Z,10.70
2023-05-04T05:47:12.551Z,10.70
2023-05-04T05:49:39.024Z,10.80
2023-05-04T05:52:05.621Z,11.00
2023-05-04T05:54:32.395Z,11.10
2023-05-04T05:56:59.175Z,11.20
2023-05-04T05:59:25.689Z,11.20
2023-05-04T06:01:52.180Z,11.20
2023-05-04T06:04:18.797Z,11.20
2023-05-04T06:06:46.193Z,11.40
2023-05-04T06:09:13.194Z,11.60
2023-05-04T06:11:39.732Z,11.80
2023-05-04T06:14:06.330Z,11.90
2023-05-04T06:16:33.049Z,12.00
2023-05-04T06:18:59.703Z,12.10
2023-05-04T06:21:26.657Z,12.20
2023-05-04T06:23:53.637Z,12.30
2023-05-04T06:26:20.215Z,12.30
2023-05-04T06:28:46.903Z,12.40
2023-05-04T06:31:14.805Z,12.60
2023-05-04T06:33:41.747Z,12.70
2023-05-04T06:36:08.573Z,12.90
2023-05-04T06:38:37.760Z,12.90
2023-05-04T06:41:05.609Z,13.00
2023-05-04T06:43:33.060Z,13.00
2023-05-04T06:46:03.584Z,13.00
2023-05-04T06:48:31.092Z,13.10
2023-05-04T06:50:57.725Z,13.20
2023-05-04T06:53:25.106Z,13.40
2023-05-04T06:55:51.733Z,13.50
2023-05-04T06:58:19.911Z,13.60
2023-05-04T07:00:47.009Z,13.70
2023-05-04T07:03:13.630Z,13.80
2023-05-04T07:05:40.186Z,14.00
2023-05-04T07:08:06.820Z,14.20
2023-05-04T07:10:33.591Z,14.30
2023-05-04T07:13:00.258Z,14.50
2023-05-04T07:15:26.780Z,14.60
2023-05-04T07:17:53.392Z,14.80
2023-05-04T07:20:22.952Z,15.00
2023-05-04T07:22:57.955Z,15.20
2023-05-04T07:25:28.461Z,15.30
2023-05-04T07:27:55.022Z,15.50
2023-05-04T07:30:21.794Z,15.70
2023-05-04T07:32:48.751Z,15.80
2023-05-04T07:35:15.522Z,16.00
2023-05-04T07:37:41.975Z,16.10
2023-05-04T07:40:09.553Z,16.20
2023-05-04T07:42:36.250Z,16.40
2023-05-04T07:45:03.168Z,16.50
2023-05-04T07:47:29.623Z,16.60
2023-05-04T07:49:56.194Z,16.90
2023-05-04T07:52:22.747Z,17.00
2023-05-04T07:54:53.220Z,17.10
2023-05-04T07:57:22.958Z,17.20
2023-05-04T07:59:53.635Z,17.40
2023-05-04T08:02:20.304Z,17.50
2023-05-04T08:04:46.870Z,17.60
2023-05-04T08:07:16.513Z,17.90
2023-05-04T08:09:43.076Z,17.90
2023-05-04T08:12:09.804Z,18.00
2023-05-04T08:14:38.293Z,18.20
2023-05-04T08:17:04.964Z,18.40
2023-05-04T08:19:31.409Z,18.40
2023-05-04T08:21:57.945Z,18.50
2023-05-04T08:24:24.463Z,18.60
2023-05-04T08:27:03.745Z,18.70
2023-05-04T08:29:33.494Z,18.90
2023-05-04T08:32:00.151Z,19.00
2023-05-04T08:34:26.995Z,19.10
2023-05-04T08:36:53.470Z,19.20
2023-05-04T08:39:20.010Z,19.20
2023-05-04T08:41:46.478Z,19.30
2023-05-04T08:44:13.028Z,19.40
2023-05-04T08:46:40.462Z,19.50
2023-05-04T08:49:07.358Z,19.70
2023-05-04T08:51:35.759Z,19.70
2023-05-04T08:54:06.805Z,19.90
2023-05-04T08:56:33.368Z,20.00
2023-05-04T08:59:01.974Z,20.00
2023-05-04T09:01:31.221Z,20.10
2023-05-04T09:03:58.211Z,20.20
2023-05-04T09:06:25.434Z,20.30
2023-05-04T09:08:51.948Z,20.30
2023-05-04T09:11:18.467Z,20.40
2023-05-04T09:13:45.046Z,20.60
2023-05-04T09:16:12.803Z,20.80
2023-05-04T09:18:43.494Z,20.70
2023-05-04T09:21:11.360Z,20.80
2023-05-04T09:23:53.608Z,21.00
2023-05-04T09:26:30.485Z,21.10
2023-05-04T09:28:57.404Z,21.10
2023-05-04T09:31:24.413Z,21.20
2023-05-04T09:33:53.279Z,21.30
2023-05-04T09:36:21.885Z,21.30
2023-05-04T09:38:48.841Z,21.30
2023-05-04T09:41:15.772Z,21.50
2023-05-04T09:43:43.757Z,21.60
2023-05-04T09:46:18.369Z,21.80
2023-05-04T09:48:53.071Z,21.80
2023-05-04T09:51:22.455Z,21.90
2023-05-04T09:53:53.818Z,22.10
2023-05-04T09:56:41.603Z,22.20
2023-05-04T09:59:09.945Z,22.40
2023-05-04T10:01:36.597Z,22.40
2023-05-04T10:04:04.039Z,22.50
2023-05-04T10:06:31.263Z,22.40
2023-05-04T10:09:00.585Z,22.50
2023-05-04T10:11:28.521Z,22.60
2023-05-04T10:13:59.197Z,22.80
2023-05-04T10:16:44.203Z,22.70
2023-05-04T10:19:34.092Z,22.70
2023-05-04T10:22:31.658Z,22.70
2023-05-04T10:25:12.297Z,22.80
2023-05-04T10:28:08.629Z,22.80
2023-05-04T10:30:36.303Z,22.90
2023-05-04T10:33:03.001Z,23.00
2023-05-04T10:35:29.702Z,22.90
2023-05-04T10:37:56.729Z,23.00
2023-05-04T10:40:39.528Z,22.90
2023-05-04T10:43:11.675Z,22.90
2023-05-04T10:45:39.689Z,22.90
2023-05-04T10:48:10.059Z,22.80
2023-05-04T10:50:50.186Z,22.90
2023-05-04T10:53:18.167Z,22.90
2023-05-04T10:55:46.851Z,23.00
2023-05-04T10:58:16.627Z,22.90
2023-05-04T11:00:47.403Z,23.10
2023-05-04T11:03:15.191Z,23.00
2023-05-04T11:05:43.246Z,23.00
2023-05-04T11:08:27.115Z,23.00
2023-05-04T11:11:07.475Z,23.10
2023-05-04T11:13:35.408Z,23.10
2023-05-04T11:16:02.084Z,23.20
2023-05-04T11:18:31.038Z,23.30
2023-05-04T11:20:58.045Z,23.30
2023-05-04T11:23:24.636Z,23.30
2023-05-04T11:25:51.246Z,23.40
2023-05-04T11:28:18.067Z,23.50
2023-05-04T11:30:46.576Z,23.50
2023-05-04T11:33:15.183Z,23.50
2023-05-04T11:35:43.668Z,23.40
2023-05-04T11:38:10.598Z,23.50
2023-05-04T11:40:40.851Z,23.70
2023-05-04T11:43:10.592Z,23.70
2023-05-04T11:45:40.085Z,23.70
2023-05-04T11:48:08.429Z,23.70
2023-05-04T11:50:35.524Z,23.80
2023-05-04T11:53:12.258Z,23.80
2023-05-04T11:55:38.822Z,23.80
2023-05-04T11:58:07.931Z,24.00
2023-05-04T12:00:37.348Z,24.10
2023-05-04T12:03:05.944Z,24.30
2023-05-04T12:05:34.531Z,24.50
2023-05-04T12:08:03.325Z,24.50
2023-05-04T12:10:33.333Z,24.40
2023-05-04T12:13:00.057Z,24.30
2023-05-04T12:15:39.237Z,24.50
2023-05-04T12:18:05.929Z,24.50
2023-05-04T12:20:33.413Z,24.50
2023-05-04T12:23:05.965Z,24.80
2023-05-04T12:25:32.458Z,25.00
2023-05-04T12:27:58.980Z,25.20
2023-05-04T12:30:25.465Z,25.20
2023-05-04T12:32:52.054Z,25.10
2023-05-04T12:35:18.600Z,24.90
2023-05-04T12:37:45.115Z,25.00
2023-05-04T12:40:25.144Z,25.30
2023-05-04T12:42:54.712Z,25.60
2023-05-04T12:45:22.715Z,25.80
2023-05-04T12:47:49.365Z,25.90
2023-05-04T12:50:16.124Z,26.00
2023-05-04T12:52:42.671Z,26.10
2023-05-04T12:55:09.410Z,26.10
2023-05-04T12:57:36.156Z,26.10
2023-05-04T13:00:03.798Z,26.20
2023-05-04T13:02:30.386Z,26.20
2023-05-04T13:04:56.944Z,26.20
2023-05-04T13:07:23.631Z,26.10
2023-05-04T13:09:50.160Z,26.20
2023-05-04T13:12:16.789Z,26.30
2023-05-04T13:14:43.286Z,26.10
2023-05-04T13:17:09.846Z,26.20
2023-05-04T13:19:36.655Z,26.20
2023-05-04T13:22:03.437Z,26.20
2023-05-04T13:24:29.917Z,26.20
2023-05-04T13:26:56.594Z,26.20
2023-05-04T13:29:23.114Z,26.20
2023-05-04T13:31:50.330Z,26.10
2023-05-04T13:34:16.870Z,26.10
2023-05-04T13:36:43.365Z,26.20
2023-05-04T13:39:09.864Z,26.20
2023-05-04T13:41:36.413Z,26.40
2023-05-04T13:44:02.943Z,26.50
2023-05-04T13:46:29.471Z,26.70
2023-05-04T13:48:57.103Z,26.80
2023-05-04T13:51:23.774Z,27.00
2023-05-04T13:53:51.704Z,27.10
2023-05-04T13:56:18.195Z,27.20
2023-05-04T13:58:44.805Z,27.10
2023-05-04T14:01:11.515Z,27.20
2023-05-04T14:03:38.222Z,27.30
2023-05-04T14:06:04.970Z,27.50
2023-05-04T14:08:31.507Z,27.30
2023-05-04T14:10:58.613Z,27.30
2023-05-04T14:13:25.127Z,27.30
2023-05-04T14:15:52.236Z,27.30
2023-05-04T14:18:18.766Z,27.30
2023-05-04T14:20:45.685Z,27.50
2023-05-04T14:23:12.232Z,27.50
2023-05-04T14:25:38.811Z,27.60
2023-05-04T14:28:05.415Z,27.80
2023-05-04T14:30:32.706Z,27.90
2023-05-04T14:32:59.448Z,27.90
2023-05-04T14:35:26.204Z,28.00
2023-05-04T14:37:53.248Z,28.00
2023-05-04T14:40:19.885Z,28.00
2023-05-04T14:42:47.077Z,28.00
2023-05-04T14:45:15.052Z,28.00
2023-05-04T14:47:42.499Z,27.90
2023-05-04T14:50:09.671Z,27.70
2023-05-04T14:52:36.560Z,27.60
2023-05-04T14:55:05.847Z,27.60
2023-05-04T14:57:32.936Z,27.50
2023-05-04T14:59:59.885Z,27.40
2023-05-04T15:02:26.800Z,27.50
2023-05-04T15:04:53.314Z,27.80
2023-05-04T15:07:20.950Z,27.90
2023-05-04T15:09:47.553Z,27.90
2023-05-04T15:12:14.127Z,27.90
2023-05-04T15:14:40.647Z,28.00
2023-05-04T15:17:07.251Z,27.80
2023-05-04T15:19:37.022Z,27.60
2023-05-04T15:22:04.164Z,27.50
2023-05-04T15:24:30.873Z,27.40
2023-05-04T15:26:57.726Z,27.50
2023-05-04T15:29:24.620Z,27.40
2023-05-04T15:31:51.405Z,27.20
2023-05-04T15:34:18.623Z,27.00
2023-05-04T15:36:45.760Z,27.00
2023-05-04T15:39:12.427Z,27.10
2023-05-04T15:41:39.168Z,27.20
2023-05-04T15:44:08.542Z,27.30
2023-05-04T15:46:35.389Z,27.40
2023-05-04T15:49:01.966Z,27.50
2023-05-04T15:51:30.702Z,27.50
2023-05-04T15:53:57.578Z,27.70
2023-05-04T15:56:24.078Z,27.60
2023-05-04T15:58:50.676Z,27.60
2023-05-04T16:01:17.180Z,27.50
2023-05-04T16:03:43.847Z,27.80
2023-05-04T16:06:10.413Z,27.80
2023-05-04T16:08:36.996Z,28.00
2023-05-04T16:11:04.389Z,28.00
2023-05-04T16:13:31.036Z,27.80
2023-05-04T16:15:58.002Z,27.90
2023-05-04T16:18:24.651Z,28.00
2023-05-04T16:20:51.204Z,28.00
2023-05-04T16:23:17.959Z,28.30
2023-05-04T16:25:44.609Z,28.30
2023-05-04T16:28:11.566Z,28.30
2023-05-04T16:30:38.342Z,28.20
2023-05-04T16:33:05.126Z,28.20
2023-05-04T16:35:31.976Z,28.20
2023-05-04T16:37:58.823Z,28.20
2023-05-04T16:40:25.693Z,28.10
2023-05-04T16:42:52.360Z,28.20
2023-05-04T16:45:18.928Z,28.20
2023-05-04T16:47:45.697Z,28.50
2023-05-04T16:50:13.228Z,28.60
2023-05-04T16:52:40.074Z,28.80
2023-05-04T16:55:10.699Z,28.70
2023-05-04T16:57:38.445Z,28.50
2023-05-04T17:00:06.625Z,28.40
2023-05-04T17:02:33.594Z,28.30
2023-05-04T17:05:00.169Z,28.30
2023-05-04T17:07:26.711Z,28.10
2023-05-04T17:09:54.002Z,27.90
2023-05-04T17:12:21.815Z,27.80
2023-05-04T17:14:48.288Z,27.80
2023-05-04T17:17:14.866Z,27.70
2023-05-04T17:19:41.623Z,27.50
2023-05-04T17:22:08.815Z,27.30
2023-05-04T17:24:35.358Z,26.90
2023-05-04T17:27:03.095Z,26.90
2023-05-04T17:29:29.854Z,26.90
2023-05-04T17:31:56.556Z,26.60
2023-05-04T17:34:23.181Z,26.60
2023-05-04T17:36:49.719Z,26.80
2023-05-04T17:39:18.666Z,26.40
2023-05-04T17:41:48.838Z,26.20
2023-05-04T17:44:16.378Z,25.90
2023-05-04T17:46:43.483Z,25.70
2023-05-04T17:49:10.414Z,25.60
2023-05-04T17:51:37.341Z,25.50
2023-05-04T17:54:03.867Z,25.30
2023-05-04T17:56:30.468Z,25.10
2023-05-04T17:58:57.011Z,25.00
2023-05-04T18:01:23.663Z,24.90
2023-05-04T18:03:50.506Z,24.70
2023-05-04T18:06:17.192Z,24.60
2023-05-04T18:08:43.886Z,24.60
2023-05-04T18:11:12.141Z,24.40
2023-05-04T18:13:38.709Z,24.40
2023-05-04T18:16:05.549Z,24.20
2023-05-04T18:18:32.207Z,24.10
2023-05-04T18:20:59.862Z,24.00
2023-05-04T18:23:26.891Z,23.80
2023-05-04T18:25:53.602Z,23.70
2023-05-04T18:28:20.195Z,23.60
2023-05-04T18:30:53.287Z,23.50
2023-05-04T18:33:19.757Z,23.40
2023-05-04T18:35:46.298Z,23.30
2023-05-04T18:38:12.782Z,23.10
2023-05-04T18:40:39.311Z,23.10
2023-05-04T18:43:05.811Z,23.00
2023-05-04T18:45:32.488Z,22.90
2023-05-04T18:47:59.263Z,22.90
2023-05-04T18:50:25.915Z,22.80
2023-05-04T18:52:54.023Z,22.70
2023-05-04T18:55:20.901Z,22.60
2023-05-04T18:57:47.488Z,22.50
2023-05-04T19:00:14.293Z,22.50
2023-05-04T19:02:40.915Z,22.50
2023-05-04T19:05:07.925Z,22.40
2023-05-04T19:07:34.517Z,22.30
2023-05-04T19:10:01.313Z,22.20
2023-05-04T19:12:27.939Z,22.10
2023-05-04T19:14:55.163Z,22.00
2023-05-04T19:17:22.813Z,21.90
2023-05-04T19:19:49.362Z,21.90
2023-05-04T19:22:16.843Z,21.80
2023-05-04T19:24:43.450Z,21.70
2023-05-04T19:27:10.425Z,21.60
2023-05-04T19:29:36.986Z,21.60
2023-05-04T19:32:15.740Z,21.50
2023-05-04T19:34:46.849Z,21.40
2023-05-04T19:37:13.317Z,21.30
2023-05-04T19:39:39.844Z,21.20
2023-05-04T19:42:09.160Z,21.20
2023-05-04T19:44:35.839Z,21.10
2023-05-04T19:47:03.122Z,21.10
2023-05-04T19:49:29.834Z,20.90
2023-05-04T19:51:56.398Z,20.80
2023-05-04T19:54:23.148Z,20.80
2023-05-04T19:56:49.754Z,20.80
2023-05-04T19:59:16.464Z,20.70
2023-05-04T20:01:43.024Z,20.70
2023-05-04T20:04:09.600Z,20.60
2023-05-04T20:06:36.751Z,20.60
2023-05-04T20:09:04.099Z,20.50
2023-05-04T20:11:30.832Z,20.50
2023-05-04T20:13:57.412Z,20.40
2023-05-04T20:16:23.969Z,20.40
2023-05-04T20:18:50.557Z,20.40
2023-05-04T20:21:17.629Z,20.40
2023-05-04T20:23:44.493Z,20.40
2023-05-04T20:26:11.123Z,20.50
2023-05-04T20:28:37.678Z,20.50
2023-05-04T20:31:04.420Z,20.50
2023-05-04T20:33:31.018Z,20.40
2023-05-04T20:35:57.511Z,20.40
2023-05-04T20:38:24.365Z,20.30
2023-05-04T20:40:52.491Z,20.20
2023-05-04T20:43:19.595Z,20.20
2023-05-04T20:45:46.259Z,20.00
2023-05-04T20:48:12.822Z,19.90
2023-05-04T20:50:40.324Z,19.90
2023-05-04T20:53:06.926Z,19.90
2023-05-04T20:55:33.457Z,20.00
2023-05-04T20:57:59.960Z,20.00
2023-05-04T21:00:26.522Z,20.00
2023-05-04T21:02:53.257Z,19.90
2023-05-04T21:05:19.970Z,19.70
2023-05-04T21:07:46.661Z,19.50
2023-05-04T21:10:13.239Z,19.40
2023-05-04T21:12:39.811Z,19.30
2023-05-04T21:15:06.860Z,19.20
2023-05-04T21:17:33.430Z,19.10
2023-05-04T21:20:00.279Z,19.00
2023-05-04T21:22:27.571Z,18.90
2023-05-04T21:24:54.128Z,18.90
2023-05-04T21:27:21.222Z,18.80
2023-05-04T21:29:47.805Z,18.70
2023-05-04T21:32:14.435Z,18.70
2023-05-04T21:34:40.966Z,18.60
2023-05-04T21:37:07.570Z,18.60
2023-05-04T21:39:34.275Z,18.50
2023-05-04T21:42:01.022Z,18.60
2023-05-04T21:44:27.527Z,18.60
2023-05-04T21:46:54.857Z,18.50
2023-05-04T21:49:21.383Z,18.50
2023-05-04T21:51:47.933Z,18.50
2023-05-04T21:54:14.865Z,18.50
2023-05-04T21:56:42.022Z,18.50
2023-05-04T21:59:08.747Z,18.40
2023-05-04T22:01:35.384Z,18.40
2023-05-04T22:04:02.073Z,18.40
2023-05-04T22:06:29.061Z,18.30
2023-05-04T22:08:55.588Z,18.20
2023-05-04T22:11:22.463Z,18.30
2023-05-04T22:13:48.996Z,18.30
2023-05-04T22:16:15.887Z,18.30
2023-05-04T22:18:42.408Z,18.20
2023-05-04T22:21:08.886Z,18.20
2023-05-04T22:23:36.173Z,18.30
2023-05-04T22:26:03.253Z,18.30
2023-05-04T22:28:29.946Z,18.30
2023-05-04T22:30:56.759Z,18.20
2023-05-04T22:33:23.345Z,18.20
2023-05-04T22:35:50.188Z,18.10
2023-05-04T22:38:17.018Z,18.10
2023-05-04T22:40:44.049Z,18.00
2023-05-04T22:43:10.714Z,18.00
2023-05-04T22:45:38.326Z,17.80
2023-05-04T22:48:05.083Z,17.80
2023-05-04T22:50:31.626Z,17.70
2023-05-04T22:52:58.152Z,17.80
2023-05-04T22:55:24.711Z,17.60
2023-05-04T22:57:51.187Z,17.70
2023-05-04T23:00:18.371Z,17.60
2023-05-04T23:02:45.224Z,17.60
2023-05-04T23:05:11.843Z,17.60
2023-05-04T23:07:38.687Z,17.50
2023-05-04T23:10:05.977Z,17.60
2023-05-04T23:12:32.833Z,17.50
2023-05-04T23:14:59.465Z,17.50
2023-05-04T23:17:26.035Z,17.50
2023-05-04T23:19:52.571Z,17.50
2023-05-04T23:22:19.179Z,17.50
2023-05-04T23:24:45.684Z,17.50
2023-05-04T23:27:12.406Z,17.40
2023-05-04T23:29:39.052Z,17.20
2023-05-04T23:32:06.365Z,17.30
2023-05-04T23:34:33.008Z,17.30
2023-05-04T23:36:59.463Z,17.30
2023-05-04T23:39:26.104Z,17.30
2023-05-04T23:41:53.434Z,17.20
2023-05-04T23:44:21.208Z,17.20
2023-05-04T23:46:47.818Z,17.00
2023-05-04T23:49:14.305Z,16.80
2023-05-04T23:51:40.953Z,16.60
2023-05-04T23:54:07.493Z,16.60
2023-05-04T23:56:33.968Z,16.70
2023-05-04T23:59:00.517Z,16.80
